Latest Weather Observations for Beerburrum

IDQ60901

Issued at 10:11 pm EST Saturday 5 September 2015 (issued every 10 minutes, with the page automatically refreshed every 10 minutes)

About weather observations | Map of Brisbane area stations | Latest observations for Brisbane area | Other Formats
Station Details ID: 040284 Name: BEERBURRUM FOREST STATION Lat: -26.96 Lon: 152.96 Height: 48.0 m
Data from the previous 72 hours. | See also: Recent months at Beerburrum
Date/Time
EST
Tmp

°C
App
Tmp
°C
Dew
Point
°C
Rel
Hum
%
Delta-T

°C
Wind Press
QNH
hPa
Press
MSL
hPa
Rain
since
9 am
mm
Dir
 
Spd
km/h
Gust
km/h
Spd
kts
Gust
kts
05/10:00pm 11.8 11.9 10.2 90 0.8 CALM 0 0 0 0 - - 0.0
05/09:30pm 12.1 12.3 10.5 90 0.8 CALM 0 0 0 0 - - 0.0
05/09:00pm 12.6 12.9 10.8 89 0.9 CALM 0 0 0 0 - - 0.0
05/08:30pm 13.0 13.4 11.1 88 1.0 CALM 0 0 0 0 - - 0.0
05/08:00pm 13.6 14.1 11.5 87 1.1 CALM 0 0 0 0 - - 0.0
05/07:30pm 14.5 15.1 12.0 85 1.4 CALM 0 0 0 0 - - 0.0
05/07:00pm 15.3 16.1 12.4 83 1.6 CALM 0 0 0 0 - - 0.0
05/06:30pm 15.6 16.3 12.2 80 1.9 CALM 0 0 0 0 - - 0.0
05/06:00pm 16.1 16.8 12.3 78 2.1 CALM 0 0 0 0 - - 0.0
05/05:30pm 17.1 17.8 12.2 73 2.7 CALM 0 0 0 0 - - 0.0
05/05:00pm 18.6 19.1 11.7 64 3.8 CALM 0 7 0 4 - - 0.0
05/04:30pm 19.6 19.0 11.6 60 4.4 E 6 15 3 8 - - 0.0
05/04:00pm 20.5 19.8 11.4 56 5.0 ESE 6 11 3 6 - - 0.0
05/03:30pm 21.5 20.8 12.1 55 5.3 ESE 7 13 4 7 - - 0.0
05/03:00pm 21.9 21.4 12.5 55 5.3 E 7 11 4 6 - - 0.0
05/02:30pm 21.7 21.0 12.0 54 5.5 ESE 7 13 4 7 - - 0.0
05/02:00pm 21.5 20.5 10.3 49 6.1 SE 6 13 3 7 - - 0.0
05/01:30pm 22.1 21.0 10.6 48 6.3 ESE 7 13 4 7 - - 0.0
05/01:00pm 22.5 21.4 10.6 47 6.6 ESE 7 11 4 6 - - 0.0
05/12:30pm 22.3 20.8 10.5 47 6.5 SE 9 15 5 8 - - 0.0
05/12:00pm 21.9 20.7 10.4 48 6.3 SE 7 15 4 8 - - 0.0
05/11:30am 21.6 20.0 10.1 48 6.2 SSE 9 15 5 8 - - 0.0
05/11:00am 20.8 19.7 10.6 52 5.6 S 7 15 4 8 - - 0.0
05/10:30am 21.2 20.5 12.1 56 5.1 SSE 7 13 4 7 - - 0.0
05/10:00am 19.9 18.7 11.7 59 4.5 S 9 17 5 9 - - 0.0
05/09:30am 19.7 18.4 11.2 58 4.7 SSE 9 17 5 9 - - 0.0
05/09:00am 19.2 18.6 12.2 64 3.9 S 7 15 4 8 - - 0.0
05/08:30am 18.2 17.6 11.7 66 3.6 S 6 13 3 7 - - 0.0
05/08:00am 16.9 16.5 12.4 75 2.5 SSW 6 9 3 5 - - 0.0
05/07:30am 14.7 15.5 12.7 88 1.1 CALM 0 6 0 3 - - 0.0
05/07:00am 11.6 11.8 10.5 93 0.6 CALM 0 0 0 0 - - 0.0
05/06:30am 10.3 10.1 9.1 92 0.6 CALM 0 0 0 0 - - 0.0
05/06:00am 10.1 9.8 8.7 91 0.7 CALM 0 0 0 0 - - 0.0
05/05:30am 10.4 10.2 9.0 91 0.7 CALM 0 0 0 0 - - 0.0
05/05:00am 10.5 10.3 9.1 91 0.7 CALM 0 0 0 0 - - 0.0
05/04:30am 10.8 10.7 9.4 91 0.7 CALM 0 0 0 0 - - 0.0
05/04:00am 10.9 10.8 9.3 90 0.8 CALM 0 0 0 0 - - 0.0
05/03:30am 11.0 10.2 9.6 91 0.7 SW 4 7 2 4 - - 0.0
05/03:00am 11.2 11.1 9.6 90 0.8 CALM 0 6 0 3 - - 0.0
05/02:30am 11.4 10.7 10.0 91 0.7 SSW 4 7 2 4 - - 0.0
05/02:00am 11.5 10.4 10.1 91 0.7 SSW 6 7 3 4 - - 0.0
05/01:30am 11.5 11.5 9.8 89 0.9 CALM 0 0 0 0 - - 0.0
05/01:00am 11.8 11.8 9.9 88 1.0 CALM 0 0 0 0 - - 0.0
05/12:30am 12.4 12.5 10.3 87 1.1 CALM 0 0 0 0 - - 0.0
05/12:00am 12.7 12.9 10.4 86 1.2 CALM 0 0 0 0 - - 0.0
 
Date/Time
EST
Tmp

°C
App
Tmp
°C
Dew
Point
°C
Rel
Hum
%
Delta-T

°C
Wind Press
QNH
hPa
Press
MSL
hPa
Rain
since
9 am
mm
Dir
 
Spd
km/h
Gust
km/h
Spd
kts
Gust
kts
04/11:30pm 13.1 13.3 10.6 85 1.3 CALM 0 0 0 0 - - 0.0
04/11:00pm 13.7 14.0 10.9 83 1.5 CALM 0 0 0 0 - - 0.0
04/10:30pm 14.5 14.9 11.1 80 1.8 CALM 0 0 0 0 - - 0.0
04/10:00pm 15.1 15.4 10.9 76 2.2 CALM 0 0 0 0 - - 0.0
04/09:30pm 15.8 15.4 11.2 74 2.5 S 4 7 2 4 - - 0.0
04/09:00pm 16.4 16.1 11.6 73 2.6 SSW 4 7 2 4 - - 0.0
04/08:30pm 17.2 16.8 12.3 73 2.7 S 6 11 3 6 - - 0.0
04/08:00pm 17.7 17.5 13.0 74 2.6 S 6 15 3 8 - - 0.0
04/07:30pm 17.0 17.2 13.1 78 2.2 S 4 11 2 6 - - 0.0
04/07:00pm 16.5 17.2 12.3 76 2.3 CALM 0 0 0 0 - - 0.0
04/06:30pm 16.7 17.3 12.0 74 2.6 CALM 0 0 0 0 - - 0.0
04/06:00pm 16.9 17.0 11.4 70 3.0 S 2 6 1 3 - - 0.0
04/05:30pm 17.8 18.2 11.1 65 3.6 CALM 0 0 0 0 - - 0.0
04/05:00pm 19.6 18.5 10.6 56 4.9 SE 7 13 4 7 - - 0.0
04/04:30pm 20.8 19.6 9.4 48 6.1 SSE 6 7 3 4 - - 0.0
04/04:00pm 22.2 20.4 8.0 40 7.5 E 7 11 4 6 - - 0.0
04/03:30pm 22.6 21.1 8.3 40 7.6 E 6 13 3 7 - - 0.0
04/03:00pm 22.4 20.1 7.4 38 7.8 ESE 9 15 5 8 - - 0.0
04/02:30pm 23.0 21.5 9.0 41 7.5 ESE 7 13 4 7 - - 0.0
04/02:00pm 23.1 21.2 7.6 37 8.1 SE 7 15 4 8 - - 0.0
04/01:30pm 23.3 21.6 8.2 38 8.0 SSE 7 15 4 8 - - 0.0
04/01:00pm 22.3 20.1 5.3 33 8.5 SSE 6 11 3 6 - - 0.0
04/12:30pm 22.4 19.4 5.8 34 8.4 S 11 19 6 10 - - 0.0
04/12:00pm 22.6 20.2 6.8 36 8.1 SSW 9 15 5 8 - - 0.0
04/11:30am 21.2 18.3 4.7 34 8.1 SSE 9 17 5 9 - - 0.0
04/11:00am 21.2 18.9 5.9 37 7.7 S 7 19 4 10 - - 0.0
04/10:30am 21.3 19.1 5.2 35 8.0 SW 6 13 3 7 - - 0.0
04/10:00am 21.3 19.2 6.8 39 7.4 SW 7 17 4 9 - - 0.0
04/09:30am 20.1 18.0 6.8 42 6.7 SW 7 17 4 9 - - 0.0
04/09:00am 19.1 17.2 7.5 47 5.9 SW 7 13 4 7 - - 0.4
04/08:30am 18.2 16.5 7.6 50 5.4 SW 6 13 3 7 - - 0.4
04/08:00am 16.9 15.5 7.3 53 4.8 SW 4 9 2 5 - - 0.4
04/07:30am 15.3 13.7 8.1 62 3.6 WSW 6 9 3 5 - - 0.4
04/07:00am 13.2 12.2 7.4 68 2.8 S 2 7 1 4 - - 0.4
04/06:30am 12.1 10.2 6.6 69 2.6 SW 6 11 3 6 - - 0.4
04/06:00am 12.3 11.4 6.1 66 2.9 CALM 0 6 0 3 - - 0.4
04/05:30am 12.8 10.6 6.2 64 3.1 SW 7 13 4 7 - - 0.4
04/05:00am 12.6 10.4 6.2 65 3.0 W 7 13 4 7 - - 0.4
04/04:30am 13.5 12.1 5.7 59 3.7 SW 2 6 1 3 - - 0.4
04/04:00am 13.9 11.0 6.5 61 3.6 WSW 11 17 6 9 - - 0.4
04/03:30am 12.9 10.8 5.8 62 3.3 WSW 6 7 3 4 - - 0.4
04/03:00am 14.3 12.0 5.7 56 4.1 SSE 7 13 4 7 - - 0.4
04/02:30am 13.5 11.3 5.4 58 3.8 WSW 6 9 3 5 - - 0.4
04/02:00am 13.7 11.6 5.8 59 3.7 SW 6 9 3 5 - - 0.4
04/01:30am 14.2 11.9 4.8 53 4.4 S 6 9 3 5 - - 0.4
04/01:00am 14.7 12.8 5.0 52 4.6 S 4 9 2 5 - - 0.4
04/12:30am 14.9 12.6 4.9 51 4.7 SSW 6 11 3 6 - - 0.4
04/12:00am 14.8 12.7 5.9 55 4.3 SW 6 7 3 4 - - 0.4
 
Date/Time
EST
Tmp

°C
App
Tmp
°C
Dew
Point
°C
Rel
Hum
%
Delta-T

°C
Wind Press
QNH
hPa
Press
MSL
hPa
Rain
since
9 am
mm
Dir
 
Spd
km/h
Gust
km/h
Spd
kts
Gust
kts
03/11:30pm 15.5 13.3 5.4 51 4.8 SSW 6 11 3 6 - - 0.4
03/11:00pm 14.6 12.3 4.6 51 4.7 SW 6 9 3 5 - - 0.4
03/10:30pm 16.1 13.8 4.8 47 5.3 SSW 6 9 3 5 - - 0.4
03/10:00pm 16.6 14.2 4.3 44 5.8 SSW 6 15 3 8 - - 0.4
03/09:30pm 17.5 15.0 3.8 40 6.4 SW 6 13 3 7 - - 0.4
03/09:00pm 18.0 15.3 3.9 39 6.6 WSW 7 13 4 7 - - 0.4
03/08:30pm 17.8 15.3 4.7 42 6.3 WSW 7 13 4 7 - - 0.4
03/08:00pm 18.6 16.0 4.4 39 6.8 W 7 17 4 9 - - 0.4
03/07:30pm 18.1 16.4 3.9 39 6.7 WSW 2 6 1 3 - - 0.4
03/07:00pm 20.4 16.8 3.2 32 8.1 W 11 22 6 12 - - 0.4
03/06:30pm 18.7 16.9 3.7 37 7.1 SW 2 7 1 4 - - 0.4
03/06:00pm 20.6 17.8 2.9 31 8.3 W 7 17 4 9 - - 0.4
03/05:30pm 20.7 17.8 2.5 30 8.5 W 7 17 4 9 - - 0.4
03/05:00pm 21.8 18.0 1.5 26 9.4 WSW 11 24 6 13 - - 0.4
03/04:30pm 23.3 19.5 1.6 24 10.2 WSW 11 28 6 15 - - 0.4
03/04:00pm 24.8 20.4 0.3 20 11.3 W 13 28 7 15 - - 0.4
03/03:30pm 25.0 21.5 3.6 25 10.5 W 11 26 6 14 - - 0.4
03/03:00pm 25.2 21.5 4.3 26 10.4 W 13 26 7 14 - - 0.4
03/02:30pm 24.4 20.2 5.7 30 9.5 NW 17 35 9 19 - - 0.4
03/02:00pm 24.5 21.3 6.7 32 9.2 WNW 13 28 7 15 - - 0.4
03/01:30pm 23.7 19.8 6.9 34 8.7 W 17 33 9 18 - - 0.4
03/01:00pm 23.5 20.6 6.7 34 8.7 W 11 26 6 14 - - 0.4
03/12:30pm 22.7 20.4 9.1 42 7.3 W 11 20 6 11 - - 0.4
03/12:00pm 22.9 20.9 10.0 44 7.0 WSW 11 33 6 18 - - 0.4
03/11:30am 21.9 20.5 11.0 50 6.0 W 9 19 5 10 - - 0.4
03/11:00am 24.0 23.8 17.7 68 3.9 N 15 26 8 14 - - 0.4
03/10:30am 22.1 23.7 19.1 83 1.9 NNE 9 15 5 8 - - 0.4
03/10:00am 20.9 21.1 17.7 82 2.0 N 13 22 7 12 - - 0.4
03/09:30am 20.3 21.5 18.2 88 1.3 NNE 9 17 5 9 - - 0.4
03/09:00am 19.5 20.9 17.8 90 1.0 NE 7 13 4 7 - - 5.4
03/08:30am 19.3 21.0 17.1 87 1.3 N 4 11 2 6 - - 2.4
03/08:00am 19.5 18.5 16.5 83 1.8 N 17 41 9 22 - - 1.8
03/07:30am 20.1 19.4 16.3 79 2.3 NNW 15 28 8 15 - - 1.2
03/07:00am 19.5 19.6 16.5 83 1.8 N 11 22 6 12 - - 1.2
03/06:30am 16.8 18.2 15.5 92 0.8 SSE 2 6 1 3 - - 1.2
03/06:00am 16.6 18.3 15.3 92 0.8 CALM 0 7 0 4 - - 1.2
03/05:30am 16.4 18.0 14.9 91 0.9 CALM 0 0 0 0 - - 1.2
03/05:00am 16.4 17.3 15.1 92 0.8 NNE 4 9 2 5 - - 1.2
03/04:30am 16.1 16.3 14.6 91 0.9 N 7 11 4 6 - - 1.2
03/04:00am 16.2 16.1 14.9 92 0.8 NNE 9 15 5 8 - - 1.2
03/03:30am 16.0 16.7 14.5 91 0.9 NE 4 9 2 5 - - 1.2
03/03:00am 16.3 16.7 14.8 91 0.9 NE 6 7 3 4 - - 1.2
03/02:30am 16.4 16.9 14.9 91 0.9 E 6 7 3 4 - - 1.0
03/02:00am 16.6 18.1 14.6 88 1.1 CALM 0 0 0 0 - - 0.4
03/01:30am 17.5 17.5 14.2 81 1.9 NNE 7 11 4 6 - - 0.0
03/01:00am 17.9 17.8 14.0 78 2.2 NNE 7 13 4 7 - - 0.0
03/12:30am 16.8 16.6 13.1 79 2.1 ENE 6 9 3 5 - - 0.0
03/12:00am 17.5 17.6 12.8 74 2.6 ENE 4 7 2 4 - - 0.0
 
Date/Time
EST
Tmp

°C
App
Tmp
°C
Dew
Point
°C
Rel
Hum
%
Delta-T

°C
Wind Press
QNH
hPa
Press
MSL
hPa
Rain
since
9 am
mm
Dir
 
Spd
km/h
Gust
km/h
Spd
kts
Gust
kts
02/11:30pm 18.8 18.2 13.6 72 3.0 N 9 20 5 11 - - 0.0
02/11:00pm 17.3 17.0 12.6 74 2.6 NNE 6 9 3 5 - - 0.0
02/10:30pm 17.4 16.5 12.7 74 2.6 NNE 9 15 5 8 - - 0.0

Latest Capital City Observations: Canberra | Sydney | Melbourne | Brisbane | Adelaide | Perth | Hobart | Darwin

Other Formats:

Comma delimited format used in spreadsheet applications
http://www.bom.gov.au/fwo/IDQ60901/IDQ60901.95566.axf

JavaScript Object Notation format (JSON) in row-major order
http://www.bom.gov.au/fwo/IDQ60901/IDQ60901.95566.json